Time;durP1;ratioP1;P1;durP2;ratioP2;P2;SDS_P1;SDS_P2;PMS_P1;PMS_P2;Temp;Humidity;BMP_temperature;BMP_pressure;BME280_temperature;BME280_humidity;BME280_pressure;Samples;Min_cycle;Max_cycle;Signal;HPM_P1;HPM_P2
2023/03/19 00:00:38;;;;;;;31.17;15.93;;;;;;;10.37;78.92;101947.81;4965246;28;20057;-89
2023/03/19 00:03:05;;;;;;;34.05;15.95;;;;;;;10.50;79.25;101974.06;4991045;28;20384;-90
2023/03/19 00:05:32;;;;;;;33.63;16.05;;;;;;;10.54;78.92;101977.78;4992530;28;20037;-90
2023/03/19 00:07:58;;;;;;;29.00;15.65;;;;;;;10.36;79.05;101943.41;4989305;28;20030;-90
2023/03/19 00:10:24;;;;;;;32.20;16.10;;;;;;;10.65;78.75;101976.00;4968709;28;20040;-89
2023/03/19 00:12:51;;;;;;;37.28;16.70;;;;;;;10.55;78.79;101977.91;4967878;28;20038;-90
2023/03/19 00:15:17;;;;;;;32.47;16.48;;;;;;;10.65;78.77;101996.91;4969722;28;20080;-89
2023/03/19 00:17:43;;;;;;;32.75;15.63;;;;;;;10.66;78.75;101993.47;4979201;28;20034;-89
2023/03/19 00:20:13;;;;;;;32.72;16.70;;;;;;;10.40;78.88;101961.13;4976325;28;20042;-90
2023/03/19 00:22:39;;;;;;;33.40;16.40;;;;;;;10.46;78.60;101963.28;4990958;28;20117;-88
2023/03/19 00:25:07;;;;;;;32.33;16.00;;;;;;;10.72;78.56;102000.03;4993191;28;20112;-89
2023/03/19 00:27:32;;;;;;;36.55;17.30;;;;;;;10.58;78.31;101980.78;4979160;28;20117;-89
2023/03/19 00:29:58;;;;;;;34.67;16.33;;;;;;;10.69;79.04;101989.38;4978676;28;20110;-90
2023/03/19 00:32:25;;;;;;;35.20;16.60;;;;;;;10.69;78.44;101971.09;4978967;28;20038;-90
2023/03/19 00:34:57;;;;;;;35.45;16.50;;;;;;;10.48;78.18;101940.81;4996216;28;20030;-89
2023/03/19 00:37:26;;;;;;;31.15;15.27;;;;;;;10.65;78.20;101966.44;5006138;28;20034;-87
2023/03/19 00:39:51;;;;;;;31.60;15.93;;;;;;;10.58;78.49;101965.09;4965949;28;20133;-87
2023/03/19 00:42:18;;;;;;;31.67;15.57;;;;;;;10.47;78.64;101936.38;4991293;28;20255;-89
2023/03/19 00:44:43;;;;;;;31.65;15.75;;;;;;;10.48;77.98;101953.88;4985024;28;20021;-89
2023/03/19 00:47:09;;;;;;;33.75;16.23;;;;;;;10.54;78.50;101954.28;4975863;28;20502;-89
2023/03/19 00:49:37;;;;;;;31.60;16.05;;;;;;;10.69;78.55;101993.69;4999782;28;20033;-90
2023/03/19 00:52:06;;;;;;;34.85;16.48;;;;;;;10.58;78.63;101965.09;4998200;28;20113;-90
2023/03/19 00:54:35;;;;;;;32.75;16.05;;;;;;;10.66;78.54;101980.41;4997226;28;20033;-90
2023/03/19 00:57:00;;;;;;;34.35;16.35;;;;;;;10.58;78.11;101949.41;4995347;28;20026;-90
2023/03/19 00:59:26;;;;;;;28.10;15.13;;;;;;;10.57;78.30;101960.66;4993269;28;20113;-89
2023/03/19 01:01:53;;;;;;;36.08;16.73;;;;;;;10.49;78.76;101955.66;4994722;28;20381;-90
2023/03/19 01:04:19;;;;;;;34.60;16.55;;;;;;;10.32;78.12;101928.31;4979061;28;20022;-89
2023/03/19 01:06:45;;;;;;;37.65;17.38;;;;;;;10.41;78.35;101934.19;4988546;28;20034;-90
2023/03/19 01:09:12;;;;;;;33.00;16.33;;;;;;;10.45;78.94;101940.56;4978214;28;20420;-90
2023/03/19 01:11:41;;;;;;;38.65;17.17;;;;;;;10.57;77.93;101949.31;4995132;28;20494;-90
2023/03/19 01:14:07;;;;;;;34.53;16.67;;;;;;;10.48;78.36;101928.66;4978650;28;20084;-89
2023/03/19 01:16:35;;;;;;;36.65;18.00;;;;;;;10.42;78.29;101950.81;4978956;28;20475;-90
2023/03/19 01:19:03;;;;;;;33.63;16.98;;;;;;;10.42;78.65;101942.97;4976616;28;20038;-90
2023/03/19 01:21:30;;;;;;;37.22;17.30;;;;;;;10.14;78.54;101897.41;4991231;28;20108;-89
2023/03/19 01:23:57;;;;;;;36.35;17.88;;;;;;;10.45;78.17;101943.19;4999255;28;20038;-90
2023/03/19 01:26:24;;;;;;;32.65;16.75;;;;;;;10.52;77.77;101948.97;4978519;28;20022;-89
2023/03/19 01:28:51;;;;;;;38.05;17.02;;;;;;;10.43;78.57;101944.75;4980982;28;20042;-89
2023/03/19 01:31:20;;;;;;;36.75;16.67;;;;;;;10.47;78.45;101949.41;4978411;28;20384;-89
2023/03/19 01:33:46;;;;;;;34.83;17.25;;;;;;;10.44;78.67;101952.72;4983621;28;20066;-90
2023/03/19 01:36:13;;;;;;;36.72;17.75;;;;;;;10.36;77.57;101926.03;5002901;28;20057;-89
2023/03/19 01:38:38;;;;;;;38.97;18.17;;;;;;;10.44;78.57;101960.56;4981622;28;20037;-89
2023/03/19 01:41:10;;;;;;;37.75;17.60;;;;;;;10.22;78.24;101934.50;4987365;28;20053;-89
2023/03/19 01:43:36;;;;;;;39.75;18.98;;;;;;;10.39;78.22;101960.22;4976692;28;20058;-90
2023/03/19 01:46:14;;;;;;;42.20;19.63;;;;;;;10.13;78.15;101926.91;4980456;28;20084;-90
2023/03/19 01:48:43;;;;;;;38.33;18.00;;;;;;;10.52;78.47;101982.94;4978010;28;20029;-90
2023/03/19 01:51:12;;;;;;;44.88;19.55;;;;;;;10.47;78.65;101981.66;4969077;28;20041;-89
2023/03/19 01:53:39;;;;;;;43.55;19.48;;;;;;;10.24;78.47;101958.13;4977841;28;20046;-89
2023/03/19 01:56:16;;;;;;;42.47;19.35;;;;;;;10.45;78.62;101980.63;4985200;28;20026;-90
2023/03/19 01:58:45;;;;;;;42.40;19.70;;;;;;;10.42;78.47;101966.47;4992667;28;20377;-89
2023/03/19 02:01:12;;;;;;;39.72;18.55;;;;;;;10.41;78.06;101956.81;4983698;28;20495;-89
2023/03/19 02:03:39;;;;;;;44.80;19.02;;;;;;;10.30;78.02;101938.63;4993861;28;20045;-89
2023/03/19 02:06:07;;;;;;;41.47;18.83;;;;;;;10.39;78.30;101968.06;4993955;28;20037;-89
2023/03/19 02:08:35;;;;;;;38.95;18.25;;;;;;;10.41;77.92;101955.09;4985151;28;20029;-89
2023/03/19 02:11:01;;;;;;;39.20;19.25;;;;;;;10.48;78.02;101993.94;4996822;28;20038;-89
2023/03/19 02:13:27;;;;;;;41.15;19.65;;;;;;;10.45;78.33;101995.41;5002205;28;20164;-90
2023/03/19 02:15:54;;;;;;;47.33;21.33;;;;;;;10.41;77.80;102002.09;4996500;28;20521;-89
2023/03/19 02:18:21;;;;;;;44.25;21.73;;;;;;;10.22;78.26;101959.72;4986466;28;20040;-88
2023/03/19 02:21:08;;;;;;;40.63;19.55;;;;;;;10.43;78.36;101991.78;4979638;28;20026;-89
2023/03/19 02:23:45;;;;;;;42.35;19.20;;;;;;;10.55;78.17;101988.34;4977470;28;20030;-88
2023/03/19 02:26:30;;;;;;;41.35;19.77;;;;;;;10.62;77.73;101994.03;4983913;28;20042;-89
2023/03/19 02:28:55;;;;;;;43.28;19.58;;;;;;;10.48;78.07;101995.66;4994727;28;20034;-89
2023/03/19 02:31:21;;;;;;;40.42;19.38;;;;;;;10.34;77.96;101971.13;4971248;28;20026;-89
2023/03/19 02:33:58;;;;;;;41.20;19.30;;;;;;;10.64;77.94;102009.03;5002308;28;20030;-89
2023/03/19 02:36:31;;;;;;;35.60;18.48;;;;;;;10.38;77.94;101974.06;4969544;28;20232;-88
2023/03/19 02:39:00;;;;;;;41.47;18.85;;;;;;;10.48;78.19;101993.03;4995167;28;20032;-89
2023/03/19 02:41:27;;;;;;;40.95;19.20;;;;;;;10.47;77.54;102007.78;5000268;28;20030;-89
2023/03/19 02:43:56;;;;;;;41.20;19.02;;;;;;;10.56;78.12;102033.66;4997972;28;20030;-88
2023/03/19 02:46:22;;;;;;;38.80;19.27;;;;;;;10.38;78.20;102012.31;5000790;28;20022;-89
2023/03/19 02:48:51;;;;;;;40.38;18.50;;;;;;;10.46;77.80;102019.03;4980868;28;20483;-88
2023/03/19 02:51:18;;;;;;;38.20;18.40;;;;;;;10.63;77.76;102051.63;4987417;28;20127;-88
2023/03/19 02:53:45;;;;;;;39.97;18.65;;;;;;;10.46;77.77;102024.25;4980683;28;20029;-88
2023/03/19 02:56:11;;;;;;;35.78;17.95;;;;;;;10.46;77.65;102010.31;4997228;28;20121;-88
2023/03/19 02:58:36;;;;;;;37.95;18.50;;;;;;;10.43;77.75;102004.81;4980697;28;20153;-89
2023/03/19 03:01:02;;;;;;;39.83;18.20;;;;;;;10.71;77.59;102057.41;5009460;28;20051;-89
2023/03/19 03:03:29;;;;;;;35.58;17.23;;;;;;;10.58;77.55;102047.75;4993756;28;20036;-89
2023/03/19 03:05:54;;;;;;;32.28;16.83;;;;;;;10.25;77.57;101989.59;4993285;28;20487;-89
2023/03/19 03:08:20;;;;;;;38.08;17.13;;;;;;;10.51;77.96;102030.72;4992546;28;20115;-88
2023/03/19 03:10:45;;;;;;;36.25;17.98;;;;;;;10.55;77.97;102051.03;4992454;28;20045;-88
2023/03/19 03:13:12;;;;;;;35.78;18.10;;;;;;;10.60;77.80;102051.38;4995266;28;20026;-88
2023/03/19 03:15:38;;;;;;;34.28;16.83;;;;;;;10.68;77.84;102071.16;4995729;28;20030;-87
2023/03/19 03:18:04;;;;;;;34.08;16.73;;;;;;;10.63;77.51;102067.31;4994460;28;20021;-88
2023/03/19 03:20:32;;;;;;;38.05;17.73;;;;;;;10.69;77.55;102078.22;4979026;28;20464;-88
2023/03/19 03:22:57;;;;;;;35.15;17.40;;;;;;;10.65;77.62;102070.03;4992377;28;20040;-88
2023/03/19 03:25:23;;;;;;;34.25;17.38;;;;;;;10.68;77.56;102067.63;4991491;28;20029;-87
2023/03/19 03:27:48;;;;;;;35.67;17.15;;;;;;;10.54;77.62;102054.47;4995900;28;20030;-87
2023/03/19 03:30:15;;;;;;;33.55;16.55;;;;;;;10.67;77.60;102077.19;4997014;28;20542;-89
2023/03/19 03:32:42;;;;;;;32.53;16.95;;;;;;;10.53;77.54;102057.84;4987197;28;20488;-88
2023/03/19 03:35:10;;;;;;;35.20;17.65;;;;;;;10.46;77.22;102036.41;4995966;28;20033;-88
2023/03/19 03:37:36;;;;;;;36.08;17.73;;;;;;;10.61;77.67;102068.91;4969014;28;20404;-88
2023/03/19 03:40:07;;;;;;;34.67;17.27;;;;;;;10.52;77.65;102047.28;4977178;28;20046;-87
2023/03/19 03:42:33;;;;;;;33.33;16.35;;;;;;;10.17;77.40;102002.03;4992394;28;20033;-90
2023/03/19 03:44:59;;;;;;;35.58;17.17;;;;;;;10.47;77.42;102049.56;5004727;28;20474;-90
2023/03/19 03:47:25;;;;;;;34.65;16.58;;;;;;;10.38;77.68;102038.44;4979634;28;20401;-87
2023/03/19 03:49:53;;;;;;;35.67;17.40;;;;;;;10.57;77.25;102061.63;4984584;28;20040;-88
2023/03/19 03:52:20;;;;;;;35.38;18.00;;;;;;;10.47;77.04;102052.16;4996217;28;20037;-87
2023/03/19 03:54:45;;;;;;;;;;;;;;;10.50;77.36;102077.63;4992745;28;20035;-87
2023/03/19 03:57:11;;;;;;;36.50;17.83;;;;;;;10.18;77.52;102023.81;4992420;28;19910;-89
2023/03/19 03:59:36;;;;;;;33.65;17.10;;;;;;;10.50;77.52;102068.09;5004698;28;20036;-88
2023/03/19 04:02:02;;;;;;;33.70;17.63;;;;;;;10.33;77.44;102031.97;4995393;28;20038;-90
2023/03/19 04:04:28;;;;;;;35.63;17.83;;;;;;;10.25;77.46;102028.75;4983393;28;20037;-88
2023/03/19 04:06:55;;;;;;;36.17;18.13;;;;;;;10.18;77.46;102018.59;4987588;28;20471;-90
2023/03/19 04:09:21;;;;;;;34.15;17.25;;;;;;;10.34;77.27;102044.22;4970074;28;20026;-90
2023/03/19 04:11:47;;;;;;;35.67;18.02;;;;;;;10.37;77.45;102068.88;4976800;28;20117;-91
2023/03/19 04:14:13;;;;;;;35.90;17.88;;;;;;;10.12;77.60;102012.97;4994820;28;20488;-85
2023/03/19 04:16:39;;;;;;;35.35;18.08;;;;;;;10.29;77.40;102048.16;4991709;28;20096;-89
2023/03/19 04:19:06;;;;;;;35.88;17.33;;;;;;;10.41;77.29;102067.38;4993291;28;20030;-90
2023/03/19 04:21:32;;;;;;;32.30;16.75;;;;;;;10.52;77.25;102078.63;4976387;28;20018;-89
2023/03/19 04:23:59;;;;;;;31.25;17.15;;;;;;;10.26;77.91;102047.91;4993154;28;20041;-89
2023/03/19 04:26:26;;;;;;;34.90;18.02;;;;;;;10.38;77.68;102073.28;5001231;28;20108;-89
2023/03/19 04:28:51;;;;;;;35.42;18.70;;;;;;;10.13;77.39;102019.97;4994281;28;20026;-87
2023/03/19 04:31:17;;;;;;;37.72;18.40;;;;;;;10.15;77.75;102032.34;5004141;28;20030;-87
2023/03/19 04:33:44;;;;;;;33.63;17.15;;;;;;;10.37;77.72;102086.22;5004487;28;20044;-89
2023/03/19 04:36:10;;;;;;;33.20;16.55;;;;;;;10.29;77.50;102056.94;4992453;28;20030;-89
2023/03/19 04:38:35;;;;;;;37.50;19.02;;;;;;;9.98;76.97;102032.75;4992828;28;20077;-89
2023/03/19 04:41:03;;;;;;;32.78;17.77;;;;;;;10.45;77.06;102103.38;4978756;28;20042;-87
2023/03/19 04:43:28;;;;;;;34.75;17.45;;;;;;;10.42;77.18;102092.72;4995165;28;20108;-90
2023/03/19 04:45:55;;;;;;;33.60;17.73;;;;;;;10.44;77.10;102095.44;4975846;28;20130;-87
2023/03/19 04:48:22;;;;;;;34.50;17.33;;;;;;;10.19;77.08;102057.00;4988077;28;20547;-88
2023/03/19 04:50:50;;;;;;;31.85;16.88;;;;;;;9.99;77.18;102024.16;4994780;28;20026;-87
2023/03/19 04:53:17;;;;;;;32.75;16.92;;;;;;;10.38;77.16;102082.84;4993814;28;20057;-86
2023/03/19 04:55:42;;;;;;;;;;;;;;;10.50;77.60;102114.19;4984951;28;20030;-87
2023/03/19 04:58:08;;;;;;;32.85;17.33;;;;;;;10.24;77.02;102067.78;4985417;28;19972;-86
2023/03/19 05:00:35;;;;;;;33.30;17.33;;;;;;;10.36;77.43;102105.31;5004574;28;20046;-87
2023/03/19 05:03:01;;;;;;;36.08;18.33;;;;;;;10.13;77.41;102051.28;4981522;28;20573;-86
2023/03/19 05:05:27;;;;;;;38.05;18.40;;;;;;;10.34;77.69;102089.50;4982312;28;20527;-86
2023/03/19 05:07:53;;;;;;;34.45;16.60;;;;;;;10.42;77.52;102103.16;4997294;28;20110;-88
2023/03/19 05:10:19;;;;;;;32.80;17.27;;;;;;;10.51;77.46;102116.91;4981125;28;20093;-87
2023/03/19 05:12:46;;;;;;;34.53;18.23;;;;;;;10.41;77.26;102100.44;4981250;28;20038;-87
2023/03/19 05:15:12;;;;;;;35.53;17.52;;;;;;;10.28;77.13;102086.41;4963381;28;20058;-88
2023/03/19 05:17:37;;;;;;;37.97;18.45;;;;;;;10.19;77.73;102081.38;4997876;28;20077;-89
2023/03/19 05:20:03;;;;;;;30.65;16.58;;;;;;;10.38;77.28;102096.78;4978075;28;20506;-89
2023/03/19 05:22:29;;;;;;;34.10;17.40;;;;;;;10.32;77.18;102077.13;4991598;28;20026;-87
2023/03/19 05:24:55;;;;;;;37.67;17.60;;;;;;;10.20;77.16;102058.78;4979541;28;20385;-88
2023/03/19 05:27:21;;;;;;;32.90;17.33;;;;;;;10.51;77.22;102108.16;4974084;28;20030;-88
2023/03/19 05:29:47;;;;;;;34.25;18.25;;;;;;;10.24;76.89;102054.72;4980521;28;20030;-88
2023/03/19 05:32:13;;;;;;;31.35;16.58;;;;;;;10.44;76.75;102098.97;4993732;28;20422;-86
2023/03/19 05:34:38;;;;;;;32.97;17.33;;;;;;;10.49;77.08;102112.38;4987553;28;20030;-86
2023/03/19 05:37:04;;;;;;;33.55;17.60;;;;;;;10.57;77.08;102135.66;4969420;28;20081;-87
2023/03/19 05:39:30;;;;;;;34.40;16.83;;;;;;;10.51;76.85;102116.00;4974021;28;20057;-88
2023/03/19 05:41:55;;;;;;;30.92;15.98;;;;;;;10.51;77.04;102113.41;4991512;28;20057;-88
2023/03/19 05:44:21;;;;;;;35.13;17.20;;;;;;;9.95;76.53;102016.88;5005389;28;20057;-86
2023/03/19 05:46:47;;;;;;;32.05;17.23;;;;;;;10.25;76.55;102073.13;5011844;28;20029;-85
2023/03/19 05:49:13;;;;;;;34.33;17.30;;;;;;;10.51;76.92;102118.63;5007456;28;20121;-86
2023/03/19 05:51:38;;;;;;;31.90;16.17;;;;;;;10.37;76.88;102108.03;4989518;28;20027;-85
2023/03/19 05:54:04;;;;;;;33.85;18.00;;;;;;;10.30;77.20;102102.22;5001486;28;20583;-85
2023/03/19 05:56:30;;;;;;;31.33;16.00;;;;;;;10.29;77.20;102088.25;4998802;28;20040;-85
2023/03/19 05:58:56;;;;;;;33.65;17.58;;;;;;;10.38;77.21;102096.78;5010990;28;20068;-88
2023/03/19 06:01:21;;;;;;;31.02;15.95;;;;;;;10.35;76.38;102078.28;4991434;28;20034;-87
2023/03/19 06:03:47;;;;;;;33.92;17.17;;;;;;;10.36;77.02;102087.94;4977763;28;20108;-88
2023/03/19 06:06:13;;;;;;;32.92;16.40;;;;;;;10.13;77.20;102060.03;4990670;28;20033;-88
2023/03/19 06:08:39;;;;;;;30.77;16.33;;;;;;;10.24;77.34;102092.16;4994357;28;20026;-88
2023/03/19 06:11:06;;;;;;;33.13;17.73;;;;;;;10.39;76.90;102118.59;5002559;28;20412;-87
2023/03/19 06:13:32;;;;;;;31.48;16.73;;;;;;;10.46;76.98;102127.81;5008814;28;20632;-88
2023/03/19 06:15:58;;;;;;;32.72;16.83;;;;;;;10.11;76.70;102069.44;4991069;28;20071;-88
2023/03/19 06:18:24;;;;;;;29.40;15.98;;;;;;;10.26;76.84;102089.69;4995753;28;20040;-86
2023/03/19 06:20:50;;;;;;;37.17;17.90;;;;;;;10.37;76.88;102136.75;4990987;28;20062;-88
2023/03/19 06:23:16;;;;;;;36.50;18.33;;;;;;;10.19;76.92;102112.72;5000958;28;20062;-89
2023/03/19 06:25:41;;;;;;;33.05;17.42;;;;;;;10.21;76.97;102119.78;5006402;28;20037;-85
2023/03/19 06:28:07;;;;;;;33.67;17.10;;;;;;;10.36;76.85;102132.31;5005031;28;20115;-88
2023/03/19 06:30:33;;;;;;;32.20;16.98;;;;;;;10.26;77.05;102124.53;4994391;28;20047;-87
2023/03/19 06:32:59;;;;;;;32.13;17.05;;;;;;;10.33;76.82;102128.59;4991331;28;20080;-87
2023/03/19 06:35:26;;;;;;;33.63;17.60;;;;;;;10.38;76.70;102137.66;4992812;28;20037;-88
2023/03/19 06:37:55;;;;;;;35.15;17.17;;;;;;;10.33;76.82;102123.38;4969400;28;20037;-87
2023/03/19 06:40:22;;;;;;;33.38;17.05;;;;;;;10.35;77.03;102133.13;5010411;28;20466;-88
2023/03/19 06:42:49;;;;;;;35.58;17.83;;;;;;;10.41;76.74;102153.56;4980928;28;20076;-87
2023/03/19 06:45:18;;;;;;;29.73;16.00;;;;;;;10.33;76.63;102128.59;5004664;28;20053;-88
2023/03/19 06:47:45;;;;;;;31.25;15.88;;;;;;;10.37;76.69;102139.38;4989387;28;20120;-89
2023/03/19 06:50:12;;;;;;;31.17;17.00;;;;;;;10.42;76.93;102171.06;4982055;28;20137;-89
2023/03/19 06:52:37;;;;;;;;;;;;;;;10.39;76.94;102173.41;4994086;28;20022;-87
2023/03/19 06:55:05;;;;;;;29.77;16.60;;;;;;;10.36;77.17;102174.09;5005249;28;19924;-86
2023/03/19 06:57:31;;;;;;;32.60;16.33;;;;;;;10.14;76.77;102124.50;5000442;28;20054;-89
2023/03/19 06:59:57;;;;;;;33.90;16.80;;;;;;;10.34;76.68;102166.94;4991466;28;20526;-88
2023/03/19 07:02:22;;;;;;;32.83;17.00;;;;;;;10.11;77.04;102125.97;4994187;28;20038;-87
2023/03/19 07:04:48;;;;;;;30.08;15.75;;;;;;;10.30;76.47;102152.72;4999196;28;20088;-87
2023/03/19 07:07:13;;;;;;;32.30;16.58;;;;;;;10.42;76.55;102163.22;4976137;28;20554;-88
2023/03/19 07:09:39;;;;;;;31.30;16.38;;;;;;;10.26;77.29;102152.34;4991867;28;20140;-87
2023/03/19 07:12:05;;;;;;;30.20;15.50;;;;;;;10.15;77.03;102108.03;4993299;28;20040;-86
2023/03/19 07:14:31;;;;;;;29.20;15.45;;;;;;;10.42;76.93;102178.91;5009176;28;20414;-87
2023/03/19 07:16:56;;;;;;;30.25;15.73;;;;;;;10.28;76.64;102158.59;4991055;28;20031;-88
2023/03/19 07:19:23;;;;;;;28.98;15.32;;;;;;;10.08;76.69;102128.34;4968146;28;20030;-90
2023/03/19 07:21:49;;;;;;;28.83;15.60;;;;;;;10.22;76.85;102142.47;4992761;28;20487;-89
2023/03/19 07:24:16;;;;;;;28.13;15.00;;;;;;;10.16;76.67;102128.16;5005740;28;20030;-89
2023/03/19 07:26:42;;;;;;;28.63;15.68;;;;;;;10.01;77.17;102103.44;4970947;28;20049;-86
2023/03/19 07:29:09;;;;;;;29.70;16.08;;;;;;;10.18;76.46;102130.84;4991656;28;20149;-87
2023/03/19 07:31:34;;;;;;;27.35;15.68;;;;;;;10.42;76.99;102180.59;4993211;28;20045;-88
2023/03/19 07:34:00;;;;;;;29.55;15.48;;;;;;;10.28;76.94;102159.50;5007764;28;20487;-88
2023/03/19 07:36:26;;;;;;;29.48;15.75;;;;;;;10.15;77.28;102155.03;5010794;28;20034;-89
2023/03/19 07:38:51;;;;;;;28.67;15.13;;;;;;;10.38;77.04;102185.56;4996292;28;20432;-87
2023/03/19 07:41:17;;;;;;;28.52;15.32;;;;;;;10.20;76.94;102155.38;4996966;28;20046;-86
2023/03/19 07:43:44;;;;;;;27.35;14.75;;;;;;;10.09;76.71;102128.44;5008636;28;20455;-87
2023/03/19 07:46:10;;;;;;;29.50;16.25;;;;;;;10.21;77.02;102161.53;4976497;28;20328;-87
2023/03/19 07:48:45;;;;;;;26.70;14.68;;;;;;;10.19;76.90;102149.25;5005251;28;20018;-91
2023/03/19 07:51:11;;;;;;;26.65;14.98;;;;;;;10.33;77.16;102176.50;4983998;28;20049;-90
2023/03/19 07:53:40;;;;;;;27.45;14.88;;;;;;;10.31;77.25;102178.06;4989805;28;20038;-89
2023/03/19 07:56:28;;;;;;;26.77;14.88;;;;;;;10.34;77.15;102177.38;5004987;28;20036;-92
2023/03/19 07:58:55;;;;;;;26.98;14.75;;;;;;;10.42;77.17;102185.84;4978438;28;20038;-91
2023/03/19 08:01:31;;;;;;;26.48;14.40;;;;;;;10.34;76.90;102182.63;4985926;28;20026;-92
2023/03/19 08:03:58;;;;;;;26.95;14.07;;;;;;;10.36;76.82;102187.16;4983303;28;20030;-91
2023/03/19 08:06:29;;;;;;;26.70;14.82;;;;;;;10.39;77.23;102181.25;4966848;28;20022;-90
2023/03/19 08:09:05;;;;;;;26.10;14.55;;;;;;;10.38;77.01;102179.44;5009912;28;20026;-92
2023/03/19 08:11:31;;;;;;;25.40;14.40;;;;;;;10.25;76.91;102161.00;4975955;28;20037;-89
2023/03/19 08:14:05;;;;;;;26.48;14.05;;;;;;;10.34;77.07;102175.69;5003738;28;20052;-92
2023/03/19 08:16:31;;;;;;;28.02;14.50;;;;;;;9.93;76.63;102102.88;5013087;28;20033;-91
2023/03/19 08:19:02;;;;;;;22.85;13.05;;;;;;;10.42;77.03;102193.66;4976537;28;20040;-90
2023/03/19 08:21:28;;;;;;;22.48;13.45;;;;;;;10.03;76.76;102134.91;4991134;28;20079;-91
2023/03/19 08:24:03;;;;;;;22.98;13.02;;;;;;;10.29;76.90;102170.88;4993946;28;20551;-92
2023/03/19 08:26:29;;;;;;;25.90;14.13;;;;;;;10.29;76.85;102166.59;4989632;28;20023;-91
2023/03/19 08:28:55;;;;;;;26.52;14.45;;;;;;;10.23;77.65;102160.88;4969756;28;20048;-91
2023/03/19 08:31:31;;;;;;;24.83;13.48;;;;;;;10.00;77.36;102117.31;4972481;28;20061;-91
2023/03/19 08:34:01;;;;;;;25.77;14.18;;;;;;;10.19;77.46;102151.88;4992357;28;20462;-90
2023/03/19 08:36:28;;;;;;;24.83;13.15;;;;;;;10.22;76.80;102153.81;4983482;28;20722;-92
2023/03/19 08:39:09;;;;;;;24.52;13.25;;;;;;;10.33;76.92;102165.16;5006138;28;20511;-92
2023/03/19 08:41:36;;;;;;;22.80;13.13;;;;;;;10.23;77.11;102153.03;5004119;28;20499;-89
2023/03/19 08:44:02;;;;;;;21.63;12.27;;;;;;;10.24;77.18;102157.44;4994550;28;20025;-89
2023/03/19 08:46:28;;;;;;;23.00;13.13;;;;;;;10.37;77.16;102181.16;4995349;28;20022;-90
2023/03/19 08:48:55;;;;;;;24.55;12.80;;;;;;;10.40;77.14;102177.88;5004630;28;20036;-89
2023/03/19 08:51:22;;;;;;;21.77;12.48;;;;;;;10.40;76.95;102175.25;4989555;28;20095;-89
2023/03/19 08:53:50;;;;;;;23.52;12.98;;;;;;;10.43;76.70;102169.34;4994465;28;20443;-91
2023/03/19 08:56:19;;;;;;;20.02;12.05;;;;;;;10.41;76.94;102173.53;4996745;28;20506;-91
2023/03/19 08:58:46;;;;;;;20.55;11.77;;;;;;;10.06;76.82;102116.88;4979377;28;20029;-90
2023/03/19 09:01:13;;;;;;;22.10;11.90;;;;;;;10.02;76.61;102107.91;4995308;28;20032;-89
2023/03/19 09:03:52;;;;;;;22.02;12.35;;;;;;;10.43;76.72;102178.09;4994831;28;20037;-90
2023/03/19 09:06:17;;;;;;;20.45;11.55;;;;;;;10.45;76.67;102168.66;5002563;28;20038;-91
2023/03/19 09:08:46;;;;;;;21.77;12.30;;;;;;;10.29;76.96;102150.00;4985419;28;20034;-91
2023/03/19 09:11:16;;;;;;;19.70;11.15;;;;;;;10.45;76.69;102173.00;4986634;28;20542;-91
2023/03/19 09:13:46;;;;;;;22.17;12.35;;;;;;;10.42;76.97;102167.56;5004669;28;20558;-89
2023/03/19 09:16:18;;;;;;;21.63;12.15;;;;;;;9.99;76.57;102084.19;4970349;28;20573;-92
2023/03/19 09:19:03;;;;;;;22.38;12.35;;;;;;;10.43;76.74;102162.41;4979455;28;20030;-93
2023/03/19 09:21:32;;;;;;;18.42;11.55;;;;;;;10.33;76.71;102132.09;4976860;28;20037;-91
2023/03/19 09:24:17;;;;;;;21.45;12.80;;;;;;;10.47;76.60;102154.03;4986106;28;20570;-91
2023/03/19 09:26:45;;;;;;;23.30;13.10;;;;;;;10.25;76.84;102120.13;5005965;28;20037;-92
2023/03/19 09:29:12;;;;;;;20.48;11.38;;;;;;;10.34;76.72;102117.34;5011435;28;20033;-89
2023/03/19 09:31:38;;;;;;;22.35;12.10;;;;;;;10.24;76.79;102101.72;4993977;28;20026;-89
2023/03/19 09:34:07;;;;;;;21.17;11.48;;;;;;;10.21;76.24;102086.72;4992881;28;20044;-91
2023/03/19 09:36:35;;;;;;;22.95;12.35;;;;;;;10.53;76.59;102144.06;4993928;28;20034;-89
2023/03/19 09:39:01;;;;;;;18.15;10.93;;;;;;;10.49;76.42;102138.47;4991601;28;20033;-88
2023/03/19 09:41:30;;;;;;;20.40;11.98;;;;;;;10.56;76.29;102140.75;4997796;28;20123;-90
2023/03/19 09:44:00;;;;;;;19.77;11.32;;;;;;;10.61;75.91;102147.25;4991228;28;20026;-91
2023/03/19 09:46:32;;;;;;;19.92;11.75;;;;;;;10.50;76.72;102135.09;4986061;28;20041;-91
2023/03/19 09:49:18;;;;;;;20.35;11.93;;;;;;;10.42;75.98;102108.38;4998587;28;20029;-91
2023/03/19 09:51:52;;;;;;;17.83;10.50;;;;;;;10.54;76.59;102131.91;4992138;28;20103;-91
2023/03/19 09:54:38;;;;;;;19.60;10.82;;;;;;;10.52;76.78;102142.25;4975229;28;20084;-90
2023/03/19 09:57:04;;;;;;;19.83;11.50;;;;;;;10.46;75.76;102112.16;4966112;28;20096;-91
2023/03/19 09:59:30;;;;;;;21.27;11.43;;;;;;;10.55;75.80;102112.84;4986735;28;20018;-90
2023/03/19 10:02:35;;;;;;;18.35;10.93;;;;;;;10.59;76.24;102139.31;5001313;28;20077;-91
2023/03/19 10:05:26;;;;;;;18.63;10.82;;;;;;;10.56;76.87;102139.09;4992355;28;20467;-91
2023/03/19 10:08:33;;;;;;;17.02;10.27;;;;;;;10.60;76.20;102134.97;4994319;28;20099;-92
2023/03/19 10:11:12;;;;;;;18.45;10.13;;;;;;;10.57;76.23;102134.75;4992590;28;20113;-90
2023/03/19 10:14:03;;;;;;;17.85;10.90;;;;;;;10.59;76.31;102126.25;4994246;28;20453;-90
2023/03/19 10:16:29;;;;;;;18.02;10.27;;;;;;;10.56;76.15;102122.47;5001065;28;20039;-90
2023/03/19 10:18:59;;;;;;;17.15;10.05;;;;;;;10.54;76.27;102121.44;4991751;28;20530;-90
2023/03/19 10:21:46;;;;;;;17.90;10.35;;;;;;;10.53;76.22;102123.16;4975916;28;20041;-92
2023/03/19 10:24:18;;;;;;;17.98;10.20;;;;;;;10.62;76.41;102127.25;4981630;28;20029;-93
2023/03/19 10:26:47;;;;;;;15.95;9.68;;;;;;;10.58;76.52;102123.50;4997165;28;20037;-89
2023/03/19 10:29:33;;;;;;;16.95;10.48;;;;;;;10.56;76.10;102114.63;4994544;28;20073;-92
2023/03/19 10:32:20;;;;;;;15.20;9.82;;;;;;;10.65;75.76;102123.19;4980243;28;20022;-89
2023/03/19 10:35:11;;;;;;;15.95;9.88;;;;;;;10.62;76.44;102115.09;4980149;28;20049;-90
2023/03/19 10:37:39;;;;;;;16.92;10.57;;;;;;;10.46;76.03;102076.50;4997758;28;20063;-92
2023/03/19 10:40:16;;;;;;;16.05;9.27;;;;;;;10.57;76.20;102092.97;5014224;28;20049;-92
2023/03/19 10:43:22;;;;;;;19.92;10.82;;;;;;;10.70;75.27;102100.91;4994780;28;20041;-90
2023/03/19 10:45:50;;;;;;;16.30;9.73;;;;;;;10.33;75.61;102037.19;4993476;28;20038;-91
2023/03/19 10:48:42;;;;;;;17.08;10.15;;;;;;;10.68;76.10;102094.66;4996338;28;20050;-90
2023/03/19 10:51:13;;;;;;;16.63;10.43;;;;;;;10.66;75.71;102090.13;4977745;28;20515;-93
2023/03/19 10:54:03;;;;;;;15.70;9.90;;;;;;;10.70;75.71;102090.47;4983283;28;20468;-92
2023/03/19 10:56:45;;;;;;;16.13;9.73;;;;;;;10.69;76.21;102090.34;4978518;28;20030;-94
2023/03/19 10:59:25;;;;;;;13.55;9.00;;;;;;;10.66;75.80;102082.28;5002466;28;20082;-91
2023/03/19 11:02:16;;;;;;;14.23;9.38;;;;;;;10.67;75.58;102081.47;4993513;28;20085;-92
2023/03/19 11:04:41;;;;;;;16.65;9.35;;;;;;;10.59;75.94;102071.38;4998183;28;20128;-92
2023/03/19 11:07:18;;;;;;;13.23;8.77;;;;;;;10.69;75.65;102082.50;4979423;28;20034;-92
2023/03/19 11:09:48;;;;;;;;;;;;;;;10.70;75.56;102080.03;4989686;28;20042;-90
2023/03/19 11:12:23;;;;;;;15.50;8.98;;;;;;;10.49;75.68;102045.38;4996209;28;19929;-92
2023/03/19 11:14:59;;;;;;;16.17;9.35;;;;;;;10.55;75.47;102052.75;4996502;28;20524;-90
2023/03/19 11:17:45;;;;;;;13.73;8.60;;;;;;;10.71;75.75;102074.00;4999203;28;20037;-87
2023/03/19 11:20:32;;;;;;;13.63;8.63;;;;;;;10.54;75.18;102045.69;4987054;28;20105;-92